sensor_id;sensor_type;location;lat;lon;timestamp;pressure;altitude;pressure_sealevel;temperature;humidity
59873;BME280;50750;51.636;4.948;2023-04-06T00:02:08;101948.23;;;13.77;54.68
59873;BME280;50750;51.636;4.948;2023-04-06T00:04:35;101942.95;;;13.77;54.79
59873;BME280;50750;51.636;4.948;2023-04-06T00:07:02;101940.85;;;13.77;54.62
59873;BME280;50750;51.636;4.948;2023-04-06T00:09:29;101941.40;;;13.76;54.56
59873;BME280;50750;51.636;4.948;2023-04-06T00:11:55;101935.07;;;13.76;54.56
59873;BME280;50750;51.636;4.948;2023-04-06T00:14:23;101934.19;;;13.76;54.64
59873;BME280;50750;51.636;4.948;2023-04-06T00:16:49;101932.60;;;13.76;54.66
59873;BME280;50750;51.636;4.948;2023-04-06T00:19:16;101928.75;;;13.75;54.52
59873;BME280;50750;51.636;4.948;2023-04-06T00:21:42;101922.95;;;13.75;54.51
59873;BME280;50750;51.636;4.948;2023-04-06T00:24:09;101924.89;;;13.75;54.62
59873;BME280;50750;51.636;4.948;2023-04-06T00:26:36;101920.67;;;13.74;54.52
59873;BME280;50750;51.636;4.948;2023-04-06T00:29:02;101918.91;;;13.74;54.55
59873;BME280;50750;51.636;4.948;2023-04-06T00:31:29;101914.90;;;13.73;54.65
59873;BME280;50750;51.636;4.948;2023-04-06T00:33:57;101912.79;;;13.73;54.63
59873;BME280;50750;51.636;4.948;2023-04-06T00:36:24;101910.14;;;13.73;54.56
59873;BME280;50750;51.636;4.948;2023-04-06T00:38:51;101908.56;;;13.73;54.66
59873;BME280;50750;51.636;4.948;2023-04-06T00:41:18;101906.64;;;13.73;54.68
59873;BME280;50750;51.636;4.948;2023-04-06T00:43:44;101906.99;;;13.72;54.25
59873;BME280;50750;51.636;4.948;2023-04-06T00:46:11;101904.38;;;13.72;54.32
59873;BME280;50750;51.636;4.948;2023-04-06T00:48:37;101901.57;;;13.71;54.32
59873;BME280;50750;51.636;4.948;2023-04-06T00:51:05;101897.52;;;13.71;54.26
59873;BME280;50750;51.636;4.948;2023-04-06T00:53:32;101900.35;;;13.71;54.35
59873;BME280;50750;51.636;4.948;2023-04-06T00:55:58;101897.38;;;13.70;54.29
59873;BME280;50750;51.636;4.948;2023-04-06T00:58:25;101894.02;;;13.70;54.47
59873;BME280;50750;51.636;4.948;2023-04-06T01:00:52;101896.48;;;13.70;54.58
59873;BME280;50750;51.636;4.948;2023-04-06T01:03:18;101890.34;;;13.69;54.45
59873;BME280;50750;51.636;4.948;2023-04-06T01:05:45;101885.61;;;13.69;54.57
59873;BME280;50750;51.636;4.948;2023-04-06T01:08:12;101886.33;;;13.68;54.54
59873;BME280;50750;51.636;4.948;2023-04-06T01:10:38;101881.94;;;13.68;54.61
59873;BME280;50750;51.636;4.948;2023-04-06T01:13:05;101883.86;;;13.68;54.62
59873;BME280;50750;51.636;4.948;2023-04-06T01:15:33;101879.31;;;13.68;54.74
59873;BME280;50750;51.636;4.948;2023-04-06T01:18:01;101874.22;;;13.67;54.66
59873;BME280;50750;51.636;4.948;2023-04-06T01:20:28;101871.76;;;13.67;54.60
59873;BME280;50750;51.636;4.948;2023-04-06T01:22:55;101867.36;;;13.67;54.55
59873;BME280;50750;51.636;4.948;2023-04-06T01:25:21;101869.13;;;13.67;54.47
59873;BME280;50750;51.636;4.948;2023-04-06T01:27:48;101869.64;;;13.67;54.68
59873;BME280;50750;51.636;4.948;2023-04-06T01:30:14;101866.66;;;13.66;54.69
59873;BME280;50750;51.636;4.948;2023-04-06T01:32:42;101864.75;;;13.66;54.50
59873;BME280;50750;51.636;4.948;2023-04-06T01:35:09;101862.99;;;13.66;54.48
59873;BME280;50750;51.636;4.948;2023-04-06T01:37:36;101860.53;;;13.66;54.48
59873;BME280;50750;51.636;4.948;2023-04-06T01:40:03;101858.95;;;13.65;54.56
59873;BME280;50750;51.636;4.948;2023-04-06T01:42:30;101857.38;;;13.65;54.60
59873;BME280;50750;51.636;4.948;2023-04-06T01:44:57;101852.81;;;13.64;54.56
59873;BME280;50750;51.636;4.948;2023-04-06T01:47:23;101849.83;;;13.64;54.67
59873;BME280;50750;51.636;4.948;2023-04-06T01:49:50;101844.53;;;13.64;54.34
59873;BME280;50750;51.636;4.948;2023-04-06T01:52:16;101841.55;;;13.64;54.55
59873;BME280;50750;51.636;4.948;2023-04-06T01:54:43;101841.02;;;13.64;54.43
59873;BME280;50750;51.636;4.948;2023-04-06T01:57:10;101839.63;;;13.64;54.37
59873;BME280;50750;51.636;4.948;2023-04-06T01:59:37;101836.29;;;13.64;54.46
59873;BME280;50750;51.636;4.948;2023-04-06T02:02:03;101829.79;;;13.63;54.55
59873;BME280;50750;51.636;4.948;2023-04-06T02:04:30;101826.27;;;13.63;54.44
59873;BME280;50750;51.636;4.948;2023-04-06T02:06:56;101824.02;;;13.62;54.37
59873;BME280;50750;51.636;4.948;2023-04-06T02:09:23;101822.42;;;13.63;54.33
59873;BME280;50750;51.636;4.948;2023-04-06T02:11:49;101824.36;;;13.62;54.51
59873;BME280;50750;51.636;4.948;2023-04-06T02:14:16;101825.08;;;13.62;54.39
59873;BME280;50750;51.636;4.948;2023-04-06T02:16:42;101820.50;;;13.62;54.57
59873;BME280;50750;51.636;4.948;2023-04-06T02:19:09;101814.17;;;13.62;54.54
59873;BME280;50750;51.636;4.948;2023-04-06T02:21:36;101810.83;;;13.61;54.43
59873;BME280;50750;51.636;4.948;2023-04-06T02:24:02;101811.36;;;13.62;54.64
59873;BME280;50750;51.636;4.948;2023-04-06T02:26:29;101807.48;;;13.61;54.53
59873;BME280;50750;51.636;4.948;2023-04-06T02:28:55;101805.07;;;13.60;54.49
59873;BME280;50750;51.636;4.948;2023-04-06T02:31:22;101802.23;;;13.61;54.56
59873;BME280;50750;51.636;4.948;2023-04-06T02:33:48;101802.06;;;13.61;54.58
59873;BME280;50750;51.636;4.948;2023-04-06T02:36:15;101801.00;;;13.61;54.48
59873;BME280;50750;51.636;4.948;2023-04-06T02:38:42;101794.84;;;13.61;54.56
59873;BME280;50750;51.636;4.948;2023-04-06T02:41:09;101794.14;;;13.60;54.53
59873;BME280;50750;51.636;4.948;2023-04-06T02:43:35;101791.00;;;13.60;54.54
59873;BME280;50750;51.636;4.948;2023-04-06T02:46:02;101788.72;;;13.60;54.45
59873;BME280;50750;51.636;4.948;2023-04-06T02:48:29;101785.89;;;13.60;54.63
59873;BME280;50750;51.636;4.948;2023-04-06T02:50:55;101788.18;;;13.59;54.57
59873;BME280;50750;51.636;4.948;2023-04-06T02:53:22;101786.25;;;13.59;54.44
59873;BME280;50750;51.636;4.948;2023-04-06T02:55:48;101783.08;;;13.59;54.69
59873;BME280;50750;51.636;4.948;2023-04-06T02:58:15;101783.45;;;13.59;54.66
59873;BME280;50750;51.636;4.948;2023-04-06T03:00:41;101780.64;;;13.58;54.67
59873;BME280;50750;51.636;4.948;2023-04-06T03:03:08;101778.88;;;13.59;54.71
59873;BME280;50750;51.636;4.948;2023-04-06T03:05:35;101775.36;;;13.58;54.65
59873;BME280;50750;51.636;4.948;2023-04-06T03:08:01;101779.23;;;13.58;54.58
59873;BME280;50750;51.636;4.948;2023-04-06T03:10:28;101772.59;;;13.58;54.62
59873;BME280;50750;51.636;4.948;2023-04-06T03:12:54;101771.02;;;13.57;54.84
59873;BME280;50750;51.636;4.948;2023-04-06T03:15:21;101772.77;;;13.57;54.90
59873;BME280;50750;51.636;4.948;2023-04-06T03:17:47;101769.61;;;13.57;54.74
59873;BME280;50750;51.636;4.948;2023-04-06T03:20:14;101766.11;;;13.56;54.71
59873;BME280;50750;51.636;4.948;2023-04-06T03:22:41;101768.73;;;13.56;54.70
59873;BME280;50750;51.636;4.948;2023-04-06T03:25:08;101768.74;;;13.56;54.58
59873;BME280;50750;51.636;4.948;2023-04-06T03:27:34;101766.30;;;13.56;54.71
59873;BME280;50750;51.636;4.948;2023-04-06T03:30:02;101765.61;;;13.56;54.61
59873;BME280;50750;51.636;4.948;2023-04-06T03:32:29;101762.09;;;13.56;54.81
59873;BME280;50750;51.636;4.948;2023-04-06T03:34:55;101757.88;;;13.55;54.75
59873;BME280;50750;51.636;4.948;2023-04-06T03:37:22;101757.36;;;13.55;54.46
59873;BME280;50750;51.636;4.948;2023-04-06T03:39:48;101754.73;;;13.55;54.66
59873;BME280;50750;51.636;4.948;2023-04-06T03:42:15;101752.09;;;13.55;54.74
59873;BME280;50750;51.636;4.948;2023-04-06T03:44:41;101752.45;;;13.54;54.48
59873;BME280;50750;51.636;4.948;2023-04-06T03:47:08;101751.58;;;13.54;54.66
59873;BME280;50750;51.636;4.948;2023-04-06T03:49:35;101749.11;;;13.53;54.60
59873;BME280;50750;51.636;4.948;2023-04-06T03:52:01;101747.20;;;13.53;54.73
59873;BME280;50750;51.636;4.948;2023-04-06T03:54:28;101742.98;;;13.53;54.55
59873;BME280;50750;51.636;4.948;2023-04-06T03:56:54;101742.62;;;13.53;54.42
59873;BME280;50750;51.636;4.948;2023-04-06T03:59:21;101742.27;;;13.53;54.55
59873;BME280;50750;51.636;4.948;2023-04-06T04:01:48;101741.77;;;13.53;54.51
59873;BME280;50750;51.636;4.948;2023-04-06T04:04:14;101742.30;;;13.52;54.54
59873;BME280;50750;51.636;4.948;2023-04-06T04:06:41;101738.96;;;13.52;54.69
59873;BME280;50750;51.636;4.948;2023-04-06T04:09:08;101740.03;;;13.51;54.52
59873;BME280;50750;51.636;4.948;2023-04-06T04:11:34;101737.91;;;13.51;54.75
59873;BME280;50750;51.636;4.948;2023-04-06T04:14:01;101735.80;;;13.51;54.69
59873;BME280;50750;51.636;4.948;2023-04-06T04:16:28;101733.86;;;13.51;54.68
59873;BME280;50750;51.636;4.948;2023-04-06T04:18:55;101731.77;;;13.51;54.89
59873;BME280;50750;51.636;4.948;2023-04-06T04:21:21;101732.84;;;13.51;54.81
59873;BME280;50750;51.636;4.948;2023-04-06T04:23:48;101732.66;;;13.51;54.95
59873;BME280;50750;51.636;4.948;2023-04-06T04:26:14;101732.48;;;13.50;54.82
59873;BME280;50750;51.636;4.948;2023-04-06T04:28:41;101735.48;;;13.51;54.82
59873;BME280;50750;51.636;4.948;2023-04-06T04:31:07;101739.17;;;13.50;54.78
59873;BME280;50750;51.636;4.948;2023-04-06T04:33:33;101738.31;;;13.50;54.86
59873;BME280;50750;51.636;4.948;2023-04-06T04:36:04;101738.69;;;13.49;54.80
59873;BME280;50750;51.636;4.948;2023-04-06T04:38:30;101742.01;;;13.50;54.83
59873;BME280;50750;51.636;4.948;2023-04-06T04:40:57;101739.91;;;13.49;54.80
59873;BME280;50750;51.636;4.948;2023-04-06T04:43:23;101736.92;;;13.49;54.81
59873;BME280;50750;51.636;4.948;2023-04-06T04:45:50;101734.29;;;13.49;54.81
59873;BME280;50750;51.636;4.948;2023-04-06T04:48:16;101733.59;;;13.49;54.86
59873;BME280;50750;51.636;4.948;2023-04-06T04:50:43;101733.23;;;13.48;54.87
59873;BME280;50750;51.636;4.948;2023-04-06T04:53:09;101733.58;;;13.49;54.82
59873;BME280;50750;51.636;4.948;2023-04-06T04:55:36;101730.78;;;13.48;54.80
59873;BME280;50750;51.636;4.948;2023-04-06T04:58:03;101727.61;;;13.48;54.97
59873;BME280;50750;51.636;4.948;2023-04-06T05:00:29;101729.02;;;13.48;55.02
59873;BME280;50750;51.636;4.948;2023-04-06T05:02:56;101731.48;;;13.48;55.03
59873;BME280;50750;51.636;4.948;2023-04-06T05:05:23;101728.52;;;13.47;55.10
59873;BME280;50750;51.636;4.948;2023-04-06T05:07:49;101734.67;;;13.47;54.93
59873;BME280;50750;51.636;4.948;2023-04-06T05:10:16;101730.66;;;13.46;54.89
59873;BME280;50750;51.636;4.948;2023-04-06T05:12:43;101733.98;;;13.47;54.88
59873;BME280;50750;51.636;4.948;2023-04-06T05:15:10;101733.83;;;13.46;54.93
59873;BME280;50750;51.636;4.948;2023-04-06T05:17:37;101734.69;;;13.47;54.85
59873;BME280;50750;51.636;4.948;2023-04-06T05:20:04;101731.19;;;13.46;54.80
59873;BME280;50750;51.636;4.948;2023-04-06T05:22:31;101730.15;;;13.46;54.88
59873;BME280;50750;51.636;4.948;2023-04-06T05:24:58;101730.86;;;13.46;54.71
59873;BME280;50750;51.636;4.948;2023-04-06T05:27:24;101731.04;;;13.46;54.98
59873;BME280;50750;51.636;4.948;2023-04-06T05:29:51;101730.50;;;13.46;54.74
59873;BME280;50750;51.636;4.948;2023-04-06T05:32:18;101733.84;;;13.46;54.80
59873;BME280;50750;51.636;4.948;2023-04-06T05:34:49;101732.80;;;13.45;54.78
59873;BME280;50750;51.636;4.948;2023-04-06T05:37:18;101729.29;;;13.45;54.77
59873;BME280;50750;51.636;4.948;2023-04-06T05:39:45;101727.89;;;13.44;54.84
59873;BME280;50750;51.636;4.948;2023-04-06T05:42:12;101728.42;;;13.44;54.82
59873;BME280;50750;51.636;4.948;2023-04-06T05:44:38;101729.48;;;13.44;54.89
59873;BME280;50750;51.636;4.948;2023-04-06T05:47:05;101730.72;;;13.44;54.84
59873;BME280;50750;51.636;4.948;2023-04-06T05:49:31;101728.77;;;13.45;54.66
59873;BME280;50750;51.636;4.948;2023-04-06T05:51:58;101728.97;;;13.44;54.91
59873;BME280;50750;51.636;4.948;2023-04-06T05:54:25;101729.67;;;13.44;53.64
59873;BME280;50750;51.636;4.948;2023-04-06T05:56:51;101728.08;;;13.38;50.92
59873;BME280;50750;51.636;4.948;2023-04-06T05:59:18;101731.48;;;13.36;51.27
59873;BME280;50750;51.636;4.948;2023-04-06T06:01:44;101728.88;;;13.34;51.77
59873;BME280;50750;51.636;4.948;2023-04-06T06:04:11;101730.31;;;13.34;52.13
59873;BME280;50750;51.636;4.948;2023-04-06T06:06:37;101722.25;;;13.33;52.49
59873;BME280;50750;51.636;4.948;2023-04-06T06:09:04;101722.95;;;13.33;52.63
59873;BME280;50750;51.636;4.948;2023-04-06T06:11:31;101725.61;;;13.32;52.90
59873;BME280;50750;51.636;4.948;2023-04-06T06:13:59;101727.02;;;13.33;52.85
59873;BME280;50750;51.636;4.948;2023-04-06T06:16:25;101726.48;;;13.32;53.33
59873;BME280;50750;51.636;4.948;2023-04-06T06:18:52;101726.30;;;13.32;53.06
59873;BME280;50750;51.636;4.948;2023-04-06T06:21:19;101723.32;;;13.32;53.49
59873;BME280;50750;51.636;4.948;2023-04-06T06:23:45;101723.86;;;13.32;53.31
59873;BME280;50750;51.636;4.948;2023-04-06T06:26:14;101721.92;;;13.32;53.41
59873;BME280;50750;51.636;4.948;2023-04-06T06:28:41;101721.39;;;13.32;53.59
59873;BME280;50750;51.636;4.948;2023-04-06T06:31:08;101721.21;;;13.32;53.84
59873;BME280;50750;51.636;4.948;2023-04-06T06:33:34;101720.86;;;13.32;53.79
59873;BME280;50750;51.636;4.948;2023-04-06T06:36:01;101724.38;;;13.32;53.90
59873;BME280;50750;51.636;4.948;2023-04-06T06:38:28;101723.84;;;13.33;53.88
59873;BME280;50750;51.636;4.948;2023-04-06T06:40:54;101727.18;;;13.33;53.88
59873;BME280;50750;51.636;4.948;2023-04-06T06:43:21;101727.17;;;13.33;53.93
59873;BME280;50750;51.636;4.948;2023-04-06T06:45:48;101726.12;;;13.33;53.96
59873;BME280;50750;51.636;4.948;2023-04-06T06:48:14;101727.18;;;13.33;54.20
59873;BME280;50750;51.636;4.948;2023-04-06T06:50:41;101721.73;;;13.33;54.18
59873;BME280;50750;51.636;4.948;2023-04-06T06:53:08;101722.95;;;13.33;54.01
59873;BME280;50750;51.636;4.948;2023-04-06T06:55:34;101719.08;;;13.33;54.22
59873;BME280;50750;51.636;4.948;2023-04-06T06:58:01;101720.14;;;13.33;54.27
59873;BME280;50750;51.636;4.948;2023-04-06T07:00:28;101721.20;;;13.33;54.27
59873;BME280;50750;51.636;4.948;2023-04-06T07:02:54;101719.44;;;13.33;54.30
59873;BME280;50750;51.636;4.948;2023-04-06T07:05:21;101722.44;;;13.33;54.49
59873;BME280;50750;51.636;4.948;2023-04-06T07:07:48;101720.86;;;13.33;54.41
59873;BME280;50750;51.636;4.948;2023-04-06T07:10:14;101719.63;;;13.33;54.53
59873;BME280;50750;51.636;4.948;2023-04-06T07:12:41;101718.75;;;13.33;54.71
59873;BME280;50750;51.636;4.948;2023-04-06T07:15:08;101717.52;;;13.32;54.61
59873;BME280;50750;51.636;4.948;2023-04-06T07:17:35;101716.82;;;13.33;54.52
59873;BME280;50750;51.636;4.948;2023-04-06T07:20:02;101717.50;;;13.32;54.46
59873;BME280;50750;51.636;4.948;2023-04-06T07:22:29;101714.00;;;13.32;54.59
59873;BME280;50750;51.636;4.948;2023-04-06T07:24:56;101714.52;;;13.32;54.56
59873;BME280;50750;51.636;4.948;2023-04-06T07:27:22;101716.48;;;13.32;54.60
59873;BME280;50750;51.636;4.948;2023-04-06T07:29:49;101716.98;;;13.32;54.48
59873;BME280;50750;51.636;4.948;2023-04-06T07:32:15;101713.13;;;13.32;54.68
59873;BME280;50750;51.636;4.948;2023-04-06T07:34:42;101712.60;;;13.32;54.64
59873;BME280;50750;51.636;4.948;2023-04-06T07:37:08;101714.89;;;13.31;54.64
59873;BME280;50750;51.636;4.948;2023-04-06T07:39:35;101711.55;;;13.31;54.69
59873;BME280;50750;51.636;4.948;2023-04-06T07:42:01;101711.03;;;13.31;54.74
59873;BME280;50750;51.636;4.948;2023-04-06T07:44:28;101707.86;;;13.31;54.82
59873;BME280;50750;51.636;4.948;2023-04-06T07:46:56;101708.92;;;13.31;54.81
59873;BME280;50750;51.636;4.948;2023-04-06T07:49:22;101712.27;;;13.31;54.93
59873;BME280;50750;51.636;4.948;2023-04-06T07:51:49;101711.59;;;13.31;54.90
59873;BME280;50750;51.636;4.948;2023-04-06T07:54:15;101711.40;;;13.31;55.01
59873;BME280;50750;51.636;4.948;2023-04-06T07:56:42;101714.73;;;13.31;55.05
59873;BME280;50750;51.636;4.948;2023-04-06T07:59:09;101718.62;;;13.31;54.92
59873;BME280;50750;51.636;4.948;2023-04-06T08:01:37;101717.04;;;13.31;54.92
59873;BME280;50750;51.636;4.948;2023-04-06T08:04:06;101716.70;;;13.30;54.98
59873;BME280;50750;51.636;4.948;2023-04-06T08:06:32;101719.14;;;13.31;54.96
59873;BME280;50750;51.636;4.948;2023-04-06T08:08:59;101719.52;;;13.30;54.94
59873;BME280;50750;51.636;4.948;2023-04-06T08:11:25;101717.94;;;13.30;54.87
59873;BME280;50750;51.636;4.948;2023-04-06T08:13:54;101717.05;;;13.30;55.00
59873;BME280;50750;51.636;4.948;2023-04-06T08:16:22;101718.98;;;13.30;54.94
59873;BME280;50750;51.636;4.948;2023-04-06T08:18:49;101718.64;;;13.30;55.12
59873;BME280;50750;51.636;4.948;2023-04-06T08:21:15;101720.23;;;13.30;55.12
59873;BME280;50750;51.636;4.948;2023-04-06T08:23:42;101719.16;;;13.30;55.21
59873;BME280;50750;51.636;4.948;2023-04-06T08:26:08;101721.28;;;13.30;55.40
59873;BME280;50750;51.636;4.948;2023-04-06T08:28:35;101723.73;;;13.30;55.18
59873;BME280;50750;51.636;4.948;2023-04-06T08:31:05;101724.98;;;13.30;55.21
59873;BME280;50750;51.636;4.948;2023-04-06T08:33:35;101728.83;;;13.30;55.13
59873;BME280;50750;51.636;4.948;2023-04-06T08:36:13;101729.90;;;13.30;55.31
59873;BME280;50750;51.636;4.948;2023-04-06T08:38:41;101730.24;;;13.30;55.13
59873;BME280;50750;51.636;4.948;2023-04-06T08:41:13;101730.42;;;13.31;55.28
59873;BME280;50750;51.636;4.948;2023-04-06T08:46:15;101726.89;;;13.31;55.32
59873;BME280;50750;51.636;4.948;2023-04-06T08:48:43;101724.23;;;13.31;55.47
59873;BME280;50750;51.636;4.948;2023-04-06T08:51:10;101725.10;;;13.31;55.26
59873;BME280;50750;51.636;4.948;2023-04-06T08:53:37;101719.13;;;13.32;55.36
59873;BME280;50750;51.636;4.948;2023-04-06T08:56:05;101723.51;;;13.32;55.50
59873;BME280;50750;51.636;4.948;2023-04-06T08:58:35;101721.74;;;13.32;55.49
59873;BME280;50750;51.636;4.948;2023-04-06T09:01:07;101720.15;;;13.32;55.50
59873;BME280;50750;51.636;4.948;2023-04-06T09:03:38;101718.40;;;13.32;55.38
59873;BME280;50750;51.636;4.948;2023-04-06T09:06:06;101719.29;;;13.32;55.61
59873;BME280;50750;51.636;4.948;2023-04-06T09:08:35;101720.33;;;13.32;55.63
59873;BME280;50750;51.636;4.948;2023-04-06T09:11:02;101717.86;;;13.33;55.51
59873;BME280;50750;51.636;4.948;2023-04-06T09:13:30;101717.51;;;13.32;55.59
59873;BME280;50750;51.636;4.948;2023-04-06T09:16:04;101716.27;;;13.33;55.59
59873;BME280;50750;51.636;4.948;2023-04-06T09:18:33;101713.81;;;13.33;55.70
59873;BME280;50750;51.636;4.948;2023-04-06T09:21:05;101715.91;;;13.33;55.77
59873;BME280;50750;51.636;4.948;2023-04-06T09:23:33;101712.56;;;13.34;55.75
59873;BME280;50750;51.636;4.948;2023-04-06T09:26:16;101710.46;;;13.33;55.94
59873;BME280;50750;51.636;4.948;2023-04-06T09:28:48;101709.21;;;13.34;55.96
59873;BME280;50750;51.636;4.948;2023-04-06T09:31:21;101709.73;;;13.34;55.88
59873;BME280;50750;51.636;4.948;2023-04-06T09:33:49;101712.36;;;13.34;55.95
59873;BME280;50750;51.636;4.948;2023-04-06T09:36:16;101707.80;;;13.34;55.86
59873;BME280;50750;51.636;4.948;2023-04-06T09:38:56;101709.37;;;13.34;56.16
59873;BME280;50750;51.636;4.948;2023-04-06T09:41:32;101702.19;;;13.34;56.30
59873;BME280;50750;51.636;4.948;2023-04-06T09:44:04;101704.47;;;13.34;56.27
59873;BME280;50750;51.636;4.948;2023-04-06T09:46:36;101702.52;;;13.34;56.18
59873;BME280;50750;51.636;4.948;2023-04-06T09:49:04;101703.40;;;13.34;56.24
59873;BME280;50750;51.636;4.948;2023-04-06T09:51:46;101702.19;;;13.34;56.21
59873;BME280;50750;51.636;4.948;2023-04-06T09:54:18;101697.77;;;13.34;56.24
59873;BME280;50750;51.636;4.948;2023-04-06T09:59:44;101701.29;;;13.34;56.35
59873;BME280;50750;51.636;4.948;2023-04-06T10:05:09;101701.29;;;13.34;56.44
59873;BME280;50750;51.636;4.948;2023-04-06T10:07:40;101698.31;;;13.34;56.59
59873;BME280;50750;51.636;4.948;2023-04-06T10:10:08;101699.53;;;13.34;56.44
59873;BME280;50750;51.636;4.948;2023-04-06T10:12:37;101704.45;;;13.34;56.63
59873;BME280;50750;51.636;4.948;2023-04-06T10:15:04;101702.72;;;13.33;56.70
59873;BME280;50750;51.636;4.948;2023-04-06T10:17:31;101700.25;;;13.33;56.59
59873;BME280;50750;51.636;4.948;2023-04-06T10:20:12;101702.70;;;13.34;56.68
59873;BME280;50750;51.636;4.948;2023-04-06T10:22:41;101696.53;;;13.34;56.61
59873;BME280;50750;51.636;4.948;2023-04-06T10:25:11;101695.32;;;13.34;56.74
59873;BME280;50750;51.636;4.948;2023-04-06T10:27:37;101698.13;;;13.34;56.85
59873;BME280;50750;51.636;4.948;2023-04-06T10:30:06;101694.61;;;13.34;56.77
59873;BME280;50750;51.636;4.948;2023-04-06T10:32:34;101694.94;;;13.35;56.81
59873;BME280;50750;51.636;4.948;2023-04-06T10:35:20;101693.89;;;13.34;56.77
59873;BME280;50750;51.636;4.948;2023-04-06T10:37:54;101691.23;;;13.34;56.82
59873;BME280;50750;51.636;4.948;2023-04-06T10:40:27;101690.90;;;13.34;56.98
59873;BME280;50750;51.636;4.948;2023-04-06T10:42:55;101688.96;;;13.34;57.02
59873;BME280;50750;51.636;4.948;2023-04-06T10:45:24;101687.37;;;13.34;56.94
59873;BME280;50750;51.636;4.948;2023-04-06T10:47:53;101685.27;;;13.34;56.94
59873;BME280;50750;51.636;4.948;2023-04-06T10:50:20;101682.96;;;13.35;56.87
59873;BME280;50750;51.636;4.948;2023-04-06T10:52:47;101679.63;;;13.35;56.99
59873;BME280;50750;51.636;4.948;2023-04-06T10:55:25;101678.56;;;13.35;57.26
59873;BME280;50750;51.636;4.948;2023-04-06T10:57:53;101672.56;;;13.36;57.02
59873;BME280;50750;51.636;4.948;2023-04-06T11:00:20;101668.19;;;13.35;57.11
59873;BME280;50750;51.636;4.948;2023-04-06T11:02:47;101660.98;;;13.35;57.31
59873;BME280;50750;51.636;4.948;2023-04-06T11:05:14;101661.69;;;13.35;57.28
59873;BME280;50750;51.636;4.948;2023-04-06T11:07:41;101655.00;;;13.35;57.19
59873;BME280;50750;51.636;4.948;2023-04-06T11:10:08;101654.29;;;13.35;57.03
59873;BME280;50750;51.636;4.948;2023-04-06T11:12:35;101656.93;;;13.35;57.23
59873;BME280;50750;51.636;4.948;2023-04-06T11:15:03;101653.06;;;13.35;57.37
59873;BME280;50750;51.636;4.948;2023-04-06T11:17:36;101650.60;;;13.35;57.34
59873;BME280;50750;51.636;4.948;2023-04-06T11:20:09;101651.47;;;13.35;57.38
59873;BME280;50750;51.636;4.948;2023-04-06T11:22:36;101653.41;;;13.35;57.37
59873;BME280;50750;51.636;4.948;2023-04-06T11:25:06;101649.02;;;13.35;57.30
59873;BME280;50750;51.636;4.948;2023-04-06T11:27:34;101644.80;;;13.35;57.44
59873;BME280;50750;51.636;4.948;2023-04-06T11:30:02;101640.23;;;13.35;57.51
59873;BME280;50750;51.636;4.948;2023-04-06T11:32:29;101641.29;;;13.34;57.56
59873;BME280;50750;51.636;4.948;2023-04-06T11:34:57;101636.18;;;13.35;57.51
59873;BME280;50750;51.636;4.948;2023-04-06T11:37:26;101635.47;;;13.35;57.58
59873;BME280;50750;51.636;4.948;2023-04-06T11:39:55;101629.85;;;13.35;57.57
59873;BME280;50750;51.636;4.948;2023-04-06T11:42:25;101628.42;;;13.35;57.51
59873;BME280;50750;51.636;4.948;2023-04-06T11:44:57;101625.45;;;13.34;57.63
59873;BME280;50750;51.636;4.948;2023-04-06T11:47:34;101625.80;;;13.35;57.65
59873;BME280;50750;51.636;4.948;2023-04-06T11:50:11;101622.45;;;13.35;57.69
59873;BME280;50750;51.636;4.948;2023-04-06T11:52:41;101617.89;;;13.35;57.61
59873;BME280;50750;51.636;4.948;2023-04-06T11:55:14;101614.02;;;13.35;57.45
59873;BME280;50750;51.636;4.948;2023-04-06T11:57:41;101611.89;;;13.35;57.73
59873;BME280;50750;51.636;4.948;2023-04-06T12:00:09;101610.66;;;13.35;57.68
59873;BME280;50750;51.636;4.948;2023-04-06T12:02:37;101612.27;;;13.35;57.71
59873;BME280;50750;51.636;4.948;2023-04-06T12:05:04;101612.42;;;13.35;57.70
59873;BME280;50750;51.636;4.948;2023-04-06T12:07:32;101611.73;;;13.34;57.84
59873;BME280;50750;51.636;4.948;2023-04-06T12:10:01;101616.64;;;13.35;57.87
59873;BME280;50750;51.636;4.948;2023-04-06T12:12:28;101611.55;;;13.35;57.69
59873;BME280;50750;51.636;4.948;2023-04-06T12:14:56;101610.32;;;13.35;57.78
59873;BME280;50750;51.636;4.948;2023-04-06T12:17:23;101612.95;;;13.35;57.92
59873;BME280;50750;51.636;4.948;2023-04-06T12:19:50;101610.66;;;13.35;57.82
59873;BME280;50750;51.636;4.948;2023-04-06T12:22:17;101609.61;;;13.35;57.86
59873;BME280;50750;51.636;4.948;2023-04-06T12:24:44;101610.14;;;13.35;58.01
59873;BME280;50750;51.636;4.948;2023-04-06T12:27:10;101609.09;;;13.35;58.03
59873;BME280;50750;51.636;4.948;2023-04-06T12:29:38;101609.08;;;13.35;58.12
59873;BME280;50750;51.636;4.948;2023-04-06T12:32:04;101607.50;;;13.35;58.08
59873;BME280;50750;51.636;4.948;2023-04-06T12:34:32;101602.23;;;13.35;57.84
59873;BME280;50750;51.636;4.948;2023-04-06T12:36:59;101600.11;;;13.35;58.15
59873;BME280;50750;51.636;4.948;2023-04-06T12:39:27;101594.84;;;13.35;57.93
59873;BME280;50750;51.636;4.948;2023-04-06T12:41:54;101592.90;;;13.35;58.11
59873;BME280;50750;51.636;4.948;2023-04-06T12:44:21;101593.61;;;13.35;58.13
59873;BME280;50750;51.636;4.948;2023-04-06T12:46:48;101594.66;;;13.35;58.09
59873;BME280;50750;51.636;4.948;2023-04-06T12:49:14;101591.50;;;13.35;58.23
59873;BME280;50750;51.636;4.948;2023-04-06T12:51:43;101590.27;;;13.35;58.00
59873;BME280;50750;51.636;4.948;2023-04-06T12:54:10;101584.27;;;13.35;58.15
59873;BME280;50750;51.636;4.948;2023-04-06T12:56:38;101582.55;;;13.34;58.04
59873;BME280;50750;51.636;4.948;2023-04-06T12:59:04;101579.02;;;13.35;58.09
59873;BME280;50750;51.636;4.948;2023-04-06T13:01:31;101579.39;;;13.34;58.23